메인 페이지
METAR-TAF:

METAR-TAF

공항 :

호세 호아킨데 올메도 국제공항

과야킬, 에콰도르

위도: 02-09S, 경도: 079-53W, 고도: 4m

현재 날씨관측

예보는 58분 전, 12:00시(UTC)에 발표되었습니다.
남남서6kt
온도 23°C
습도 83%
기압 1014 hPa
시정 10km 이상
고도 3000ft 상공 구름 보통
고도 10000ft 상공 구름 많음

METAR: SEGU 311200Z 20006KT 9999 SCT030 BKN100 23/20 Q1014 NOSIG RMK A2994

시각: 07:58 (12:58 UTC)

예보

예보는 3 시간 18분 전, 09:40시(UTC)에 발표되었습니다.
예보 대상 시간: 31일 12시부터 01일 12시까지 (UTC)
북동4kt
시정 10km 이상
고도 2300ft 상공 구름 보통
고도 10000ft 상공 구름 보통
전환 중
31일 18시부터 31일 19시까지 (UTC)
남남서5kt
고도 3000ft 상공 구름 많음
고도 10000ft 상공 구름 보통
전환 중
01일 02시부터 01일 03시까지 (UTC)
여러 방향의 바람 3kt
고도 2600ft 상공 구름 보통
고도 10000ft 상공 구름 많음

TAF: SEGU 310940Z 3112/0112 05004KT 9999 SCT023 SCT100 BECMG 3118/3119 21005KT BKN030 SCT100 BECMG 0102/0103 VRB03KT SCT026 BKN100 TX31/3120Z TN22/0110Z

4,000개 이상의 공항 관측 자료 및 예보 (METAR 및 TAF 보고).

지도상에서 검색 가능한 기상관측소가 노란 점과 빨간 점으로 표시되어 있습니다.

기상관측소 명을 보려면 표시 위로 마우스를 이동하세요.

날씨 관측과 예보를 보려면 클릭하세요.

지도 변경 : 확대하려면 엑스 표시가 있는 녹색 버튼, 축소하려면 빼기 표시가 있는 녹색 버튼, 다음 페이지의 지도를 보려면 녹색 화살표를 클릭하세요.


METAR-TAF: